sensor_id;sensor_type;location;lat;lon;timestamp;temperature;humidity
18581;DHT22;9420;50.876;7.012;2023-07-20T00:00:57;18.11;71.30
18581;DHT22;9420;50.876;7.012;2023-07-20T00:03:23;18.16;71.63
18581;DHT22;9420;50.876;7.012;2023-07-20T00:05:50;18.16;71.16
18581;DHT22;9420;50.876;7.012;2023-07-20T00:08:18;18.30;70.59
18581;DHT22;9420;50.876;7.012;2023-07-20T00:10:45;18.18;70.98
18581;DHT22;9420;50.876;7.012;2023-07-20T00:13:11;18.18;71.03
18581;DHT22;9420;50.876;7.012;2023-07-20T00:15:39;18.26;70.62
18581;DHT22;9420;50.876;7.012;2023-07-20T00:18:05;18.45;70.14
18581;DHT22;9420;50.876;7.012;2023-07-20T00:20:32;18.37;70.67
18581;DHT22;9420;50.876;7.012;2023-07-20T00:22:59;18.40;70.55
18581;DHT22;9420;50.876;7.012;2023-07-20T00:25:27;18.51;70.19
18581;DHT22;9420;50.876;7.012;2023-07-20T00:27:53;18.51;70.08
18581;DHT22;9420;50.876;7.012;2023-07-20T00:30:20;18.41;70.53
18581;DHT22;9420;50.876;7.012;2023-07-20T00:32:46;18.47;70.46
18581;DHT22;9420;50.876;7.012;2023-07-20T00:35:44;18.50;70.69
18581;DHT22;9420;50.876;7.012;2023-07-20T00:38:11;18.40;70.99
18581;DHT22;9420;50.876;7.012;2023-07-20T00:40:41;18.47;71.05
18581;DHT22;9420;50.876;7.012;2023-07-20T00:43:08;18.45;71.23
18581;DHT22;9420;50.876;7.012;2023-07-20T00:45:36;18.47;71.29
18581;DHT22;9420;50.876;7.012;2023-07-20T00:48:04;18.50;71.37
18581;DHT22;9420;50.876;7.012;2023-07-20T00:50:32;18.45;71.46
18581;DHT22;9420;50.876;7.012;2023-07-20T00:52:58;18.24;72.22
18581;DHT22;9420;50.876;7.012;2023-07-20T00:55:26;18.27;72.32
18581;DHT22;9420;50.876;7.012;2023-07-20T00:57:59;18.24;72.57
18581;DHT22;9420;50.876;7.012;2023-07-20T01:00:26;18.23;72.79
18581;DHT22;9420;50.876;7.012;2023-07-20T01:02:53;18.20;72.84
18581;DHT22;9420;50.876;7.012;2023-07-20T01:05:20;18.16;73.17
18581;DHT22;9420;50.876;7.012;2023-07-20T01:07:53;18.18;73.13
18581;DHT22;9420;50.876;7.012;2023-07-20T01:10:26;18.07;73.73
18581;DHT22;9420;50.876;7.012;2023-07-20T01:12:56;18.11;73.69
18581;DHT22;9420;50.876;7.012;2023-07-20T01:15:24;17.99;74.82
18581;DHT22;9420;50.876;7.012;2023-07-20T01:17:51;17.93;75.21
18581;DHT22;9420;50.876;7.012;2023-07-20T01:20:19;17.86;75.41
18581;DHT22;9420;50.876;7.012;2023-07-20T01:23:10;17.89;75.55
18581;DHT22;9420;50.876;7.012;2023-07-20T01:26:07;17.83;75.71
18581;DHT22;9420;50.876;7.012;2023-07-20T01:28:47;17.78;75.92
18581;DHT22;9420;50.876;7.012;2023-07-20T01:31:21;17.76;76.16
18581;DHT22;9420;50.876;7.012;2023-07-20T01:33:50;17.73;76.39
18581;DHT22;9420;50.876;7.012;2023-07-20T01:36:18;17.66;76.72
18581;DHT22;9420;50.876;7.012;2023-07-20T01:38:45;17.63;76.93
18581;DHT22;9420;50.876;7.012;2023-07-20T01:41:12;17.56;77.26
18581;DHT22;9420;50.876;7.012;2023-07-20T01:43:39;17.46;77.80
18581;DHT22;9420;50.876;7.012;2023-07-20T01:46:06;17.51;77.65
18581;DHT22;9420;50.876;7.012;2023-07-20T01:48:34;17.51;77.69
18581;DHT22;9420;50.876;7.012;2023-07-20T01:51:00;17.42;78.12
18581;DHT22;9420;50.876;7.012;2023-07-20T01:53:26;17.42;78.20
18581;DHT22;9420;50.876;7.012;2023-07-20T01:55:53;17.32;78.64
18581;DHT22;9420;50.876;7.012;2023-07-20T01:58:20;17.20;79.04
18581;DHT22;9420;50.876;7.012;2023-07-20T02:00:47;17.20;79.14
18581;DHT22;9420;50.876;7.012;2023-07-20T02:03:13;17.20;79.11
18581;DHT22;9420;50.876;7.012;2023-07-20T02:05:43;17.15;79.35
18581;DHT22;9420;50.876;7.012;2023-07-20T02:08:10;17.10;79.61
18581;DHT22;9420;50.876;7.012;2023-07-20T02:10:37;17.06;79.64
18581;DHT22;9420;50.876;7.012;2023-07-20T02:13:04;17.06;79.89
18581;DHT22;9420;50.876;7.012;2023-07-20T02:15:31;17.11;79.55
18581;DHT22;9420;50.876;7.012;2023-07-20T02:17:57;17.21;79.35
18581;DHT22;9420;50.876;7.012;2023-07-20T02:20:24;17.07;79.71
18581;DHT22;9420;50.876;7.012;2023-07-20T02:22:52;17.04;79.88
18581;DHT22;9420;50.876;7.012;2023-07-20T02:25:18;16.91;80.30
18581;DHT22;9420;50.876;7.012;2023-07-20T02:27:45;16.75;80.99
18581;DHT22;9420;50.876;7.012;2023-07-20T02:30:12;16.76;80.93
18581;DHT22;9420;50.876;7.012;2023-07-20T02:32:39;16.77;80.74
18581;DHT22;9420;50.876;7.012;2023-07-20T02:35:06;16.80;80.66
18581;DHT22;9420;50.876;7.012;2023-07-20T02:37:33;16.73;80.79
18581;DHT22;9420;50.876;7.012;2023-07-20T02:40:01;16.75;80.99
18581;DHT22;9420;50.876;7.012;2023-07-20T02:42:29;16.73;80.88
18581;DHT22;9420;50.876;7.012;2023-07-20T02:44:55;16.81;80.63
18581;DHT22;9420;50.876;7.012;2023-07-20T02:47:22;16.75;80.89
18581;DHT22;9420;50.876;7.012;2023-07-20T02:49:49;16.75;80.71
18581;DHT22;9420;50.876;7.012;2023-07-20T02:52:15;16.62;81.06
18581;DHT22;9420;50.876;7.012;2023-07-20T02:54:42;16.66;81.08
18581;DHT22;9420;50.876;7.012;2023-07-20T02:57:10;16.62;81.14
18581;DHT22;9420;50.876;7.012;2023-07-20T02:59:36;16.63;81.12
18581;DHT22;9420;50.876;7.012;2023-07-20T03:02:03;16.59;81.25
18581;DHT22;9420;50.876;7.012;2023-07-20T03:04:30;16.66;80.90
18581;DHT22;9420;50.876;7.012;2023-07-20T03:06:56;16.73;80.65
18581;DHT22;9420;50.876;7.012;2023-07-20T03:09:24;16.75;80.45
18581;DHT22;9420;50.876;7.012;2023-07-20T03:11:51;16.83;79.64
18581;DHT22;9420;50.876;7.012;2023-07-20T03:17:15;16.63;80.54
18581;DHT22;9420;50.876;7.012;2023-07-20T03:19:42;16.70;80.09
18581;DHT22;9420;50.876;7.012;2023-07-20T03:22:08;16.57;80.59
18581;DHT22;9420;50.876;7.012;2023-07-20T03:24:35;16.57;80.59
18581;DHT22;9420;50.876;7.012;2023-07-20T03:27:02;16.69;79.97
18581;DHT22;9420;50.876;7.012;2023-07-20T03:29:31;16.67;79.85
18581;DHT22;9420;50.876;7.012;2023-07-20T03:31:58;16.69;79.62
18581;DHT22;9420;50.876;7.012;2023-07-20T03:34:25;16.57;80.11
18581;DHT22;9420;50.876;7.012;2023-07-20T03:36:51;16.59;80.00
18581;DHT22;9420;50.876;7.012;2023-07-20T03:39:18;16.62;79.97
18581;DHT22;9420;50.876;7.012;2023-07-20T03:41:45;16.67;79.45
18581;DHT22;9420;50.876;7.012;2023-07-20T03:44:11;16.70;79.69
18581;DHT22;9420;50.876;7.012;2023-07-20T03:46:39;16.73;79.28
18581;DHT22;9420;50.876;7.012;2023-07-20T03:49:06;16.72;79.28
18581;DHT22;9420;50.876;7.012;2023-07-20T03:51:34;16.73;79.10
18581;DHT22;9420;50.876;7.012;2023-07-20T03:54:01;16.75;79.27
18581;DHT22;9420;50.876;7.012;2023-07-20T03:56:27;16.77;78.91
18581;DHT22;9420;50.876;7.012;2023-07-20T03:58:54;16.79;78.88
18581;DHT22;9420;50.876;7.012;2023-07-20T04:01:20;16.86;78.61
18581;DHT22;9420;50.876;7.012;2023-07-20T04:03:48;16.87;78.56
18581;DHT22;9420;50.876;7.012;2023-07-20T04:06:15;16.86;78.61
18581;DHT22;9420;50.876;7.012;2023-07-20T04:08:42;16.87;78.64
18581;DHT22;9420;50.876;7.012;2023-07-20T04:11:09;16.75;79.21
18581;DHT22;9420;50.876;7.012;2023-07-20T04:13:36;16.79;79.03
18581;DHT22;9420;50.876;7.012;2023-07-20T04:16:02;16.87;78.53
18581;DHT22;9420;50.876;7.012;2023-07-20T04:18:29;16.81;78.92
18581;DHT22;9420;50.876;7.012;2023-07-20T04:20:57;16.88;78.49
18581;DHT22;9420;50.876;7.012;2023-07-20T04:23:23;17.06;77.73
18581;DHT22;9420;50.876;7.012;2023-07-20T04:25:50;17.08;77.70
18581;DHT22;9420;50.876;7.012;2023-07-20T04:28:17;17.10;77.79
18581;DHT22;9420;50.876;7.012;2023-07-20T04:30:44;17.13;77.59
18581;DHT22;9420;50.876;7.012;2023-07-20T04:33:10;17.08;77.85
18581;DHT22;9420;50.876;7.012;2023-07-20T04:35:49;17.08;77.85
18581;DHT22;9420;50.876;7.012;2023-07-20T04:38:17;17.07;77.91
18581;DHT22;9420;50.876;7.012;2023-07-20T04:40:44;17.03;77.76
18581;DHT22;9420;50.876;7.012;2023-07-20T04:43:11;17.03;77.85
18581;DHT22;9420;50.876;7.012;2023-07-20T04:45:38;17.03;77.91
18581;DHT22;9420;50.876;7.012;2023-07-20T04:48:09;16.91;78.32
18581;DHT22;9420;50.876;7.012;2023-07-20T04:50:35;17.00;78.23
18581;DHT22;9420;50.876;7.012;2023-07-20T04:53:02;17.03;78.16
18581;DHT22;9420;50.876;7.012;2023-07-20T04:55:30;17.03;77.76
18581;DHT22;9420;50.876;7.012;2023-07-20T04:57:59;17.00;78.26
18581;DHT22;9420;50.876;7.012;2023-07-20T05:00:25;17.00;78.29
18581;DHT22;9420;50.876;7.012;2023-07-20T05:02:52;17.00;78.15
18581;DHT22;9420;50.876;7.012;2023-07-20T05:05:18;17.10;77.90
18581;DHT22;9420;50.876;7.012;2023-07-20T05:07:45;17.17;77.61
18581;DHT22;9420;50.876;7.012;2023-07-20T05:10:11;17.21;77.48
18581;DHT22;9420;50.876;7.012;2023-07-20T05:12:39;17.18;77.59
18581;DHT22;9420;50.876;7.012;2023-07-20T05:15:07;17.38;77.13
18581;DHT22;9420;50.876;7.012;2023-07-20T05:17:33;17.44;76.88
18581;DHT22;9420;50.876;7.012;2023-07-20T05:20:00;17.38;77.23
18581;DHT22;9420;50.876;7.012;2023-07-20T05:22:27;17.32;77.16
18581;DHT22;9420;50.876;7.012;2023-07-20T05:24:53;17.41;77.22
18581;DHT22;9420;50.876;7.012;2023-07-20T05:27:20;17.41;76.95
18581;DHT22;9420;50.876;7.012;2023-07-20T05:29:48;17.46;76.83
18581;DHT22;9420;50.876;7.012;2023-07-20T05:32:14;17.45;76.93
18581;DHT22;9420;50.876;7.012;2023-07-20T05:34:41;17.56;76.65
18581;DHT22;9420;50.876;7.012;2023-07-20T05:37:07;17.42;77.17
18581;DHT22;9420;50.876;7.012;2023-07-20T05:39:34;17.69;76.30
18581;DHT22;9420;50.876;7.012;2023-07-20T05:42:01;17.58;76.56
18581;DHT22;9420;50.876;7.012;2023-07-20T05:44:28;17.65;76.73
18581;DHT22;9420;50.876;7.012;2023-07-20T05:46:55;17.69;76.39
18581;DHT22;9420;50.876;7.012;2023-07-20T05:49:22;17.54;76.85
18581;DHT22;9420;50.876;7.012;2023-07-20T05:51:49;17.61;76.89
18581;DHT22;9420;50.876;7.012;2023-07-20T05:54:15;17.59;76.85
18581;DHT22;9420;50.876;7.012;2023-07-20T05:56:42;17.59;77.01
18581;DHT22;9420;50.876;7.012;2023-07-20T05:59:08;17.46;77.01
18581;DHT22;9420;50.876;7.012;2023-07-20T06:01:35;17.63;76.63
18581;DHT22;9420;50.876;7.012;2023-07-20T06:04:03;17.75;76.54
18581;DHT22;9420;50.876;7.012;2023-07-20T06:06:30;17.86;75.82
18581;DHT22;9420;50.876;7.012;2023-07-20T06:08:56;17.97;75.89
18581;DHT22;9420;50.876;7.012;2023-07-20T06:11:23;17.96;75.52
18581;DHT22;9420;50.876;7.012;2023-07-20T06:13:49;17.99;75.41
18581;DHT22;9420;50.876;7.012;2023-07-20T06:16:16;18.04;75.68
18581;DHT22;9420;50.876;7.012;2023-07-20T06:18:42;17.96;75.49
18581;DHT22;9420;50.876;7.012;2023-07-20T06:21:11;18.09;75.05
18581;DHT22;9420;50.876;7.012;2023-07-20T06:23:38;18.06;74.80
18581;DHT22;9420;50.876;7.012;2023-07-20T06:26:05;18.04;74.98
18581;DHT22;9420;50.876;7.012;2023-07-20T06:28:32;18.03;75.17
18581;DHT22;9420;50.876;7.012;2023-07-20T06:30:59;18.02;75.48
18581;DHT22;9420;50.876;7.012;2023-07-20T06:33:26;18.02;75.29
18581;DHT22;9420;50.876;7.012;2023-07-20T06:35:53;18.11;75.50
18581;DHT22;9420;50.876;7.012;2023-07-20T06:38:21;18.34;74.35
18581;DHT22;9420;50.876;7.012;2023-07-20T06:40:48;18.73;73.25
18581;DHT22;9420;50.876;7.012;2023-07-20T06:43:15;18.47;73.75
18581;DHT22;9420;50.876;7.012;2023-07-20T06:45:42;18.18;74.55
18581;DHT22;9420;50.876;7.012;2023-07-20T06:48:08;18.16;75.12
18581;DHT22;9420;50.876;7.012;2023-07-20T06:50:35;18.16;73.76
18581;DHT22;9420;50.876;7.012;2023-07-20T06:53:02;18.13;73.99
18581;DHT22;9420;50.876;7.012;2023-07-20T06:55:42;18.26;73.08
18581;DHT22;9420;50.876;7.012;2023-07-20T06:58:09;18.44;72.88
18581;DHT22;9420;50.876;7.012;2023-07-20T07:00:35;18.58;71.98
18581;DHT22;9420;50.876;7.012;2023-07-20T07:03:07;18.43;72.13
18581;DHT22;9420;50.876;7.012;2023-07-20T07:05:36;18.18;72.32
18581;DHT22;9420;50.876;7.012;2023-07-20T07:08:03;18.64;71.52
18581;DHT22;9420;50.876;7.012;2023-07-20T07:10:30;19.00;71.21
18581;DHT22;9420;50.876;7.012;2023-07-20T07:12:58;19.15;69.84
18581;DHT22;9420;50.876;7.012;2023-07-20T07:15:26;19.05;70.38
18581;DHT22;9420;50.876;7.012;2023-07-20T07:17:52;19.26;69.17
18581;DHT22;9420;50.876;7.012;2023-07-20T07:20:19;19.27;69.33
18581;DHT22;9420;50.876;7.012;2023-07-20T07:22:47;19.13;69.49
18581;DHT22;9420;50.876;7.012;2023-07-20T07:25:14;19.17;69.46
18581;DHT22;9420;50.876;7.012;2023-07-20T07:27:40;19.54;68.90
18581;DHT22;9420;50.876;7.012;2023-07-20T07:30:11;19.78;68.15
18581;DHT22;9420;50.876;7.012;2023-07-20T07:32:38;19.58;68.97
18581;DHT22;9420;50.876;7.012;2023-07-20T07:35:05;19.61;68.83
18581;DHT22;9420;50.876;7.012;2023-07-20T07:37:32;19.46;68.79
18581;DHT22;9420;50.876;7.012;2023-07-20T07:39:58;19.53;68.30
18581;DHT22;9420;50.876;7.012;2023-07-20T07:42:25;19.41;68.14
18581;DHT22;9420;50.876;7.012;2023-07-20T07:44:51;19.24;68.56
18581;DHT22;9420;50.876;7.012;2023-07-20T07:47:19;19.75;67.54
18581;DHT22;9420;50.876;7.012;2023-07-20T07:49:46;19.58;68.01
18581;DHT22;9420;50.876;7.012;2023-07-20T07:52:12;19.77;66.83
18581;DHT22;9420;50.876;7.012;2023-07-20T07:54:39;19.74;67.14
18581;DHT22;9420;50.876;7.012;2023-07-20T07:57:06;19.60;67.02
18581;DHT22;9420;50.876;7.012;2023-07-20T07:59:32;19.94;65.60
18581;DHT22;9420;50.876;7.012;2023-07-20T08:02:02;20.21;65.09
18581;DHT22;9420;50.876;7.012;2023-07-20T08:04:30;20.73;64.02
18581;DHT22;9420;50.876;7.012;2023-07-20T08:06:56;20.66;64.13
18581;DHT22;9420;50.876;7.012;2023-07-20T08:09:24;20.22;64.42
18581;DHT22;9420;50.876;7.012;2023-07-20T08:11:50;20.21;64.95
18581;DHT22;9420;50.876;7.012;2023-07-20T08:14:17;20.64;62.10
18581;DHT22;9420;50.876;7.012;2023-07-20T08:16:44;20.32;62.86
18581;DHT22;9420;50.876;7.012;2023-07-20T08:19:15;20.63;62.18
18581;DHT22;9420;50.876;7.012;2023-07-20T08:21:45;20.67;62.18
18581;DHT22;9420;50.876;7.012;2023-07-20T08:24:15;20.98;61.41
18581;DHT22;9420;50.876;7.012;2023-07-20T08:26:41;21.07;60.06
18581;DHT22;9420;50.876;7.012;2023-07-20T08:29:08;20.84;61.07
18581;DHT22;9420;50.876;7.012;2023-07-20T08:31:35;20.44;62.46
18581;DHT22;9420;50.876;7.012;2023-07-20T08:34:01;20.04;64.05
18581;DHT22;9420;50.876;7.012;2023-07-20T08:37:23;20.19;63.50
18581;DHT22;9420;50.876;7.012;2023-07-20T08:39:19;19.89;63.81
18581;DHT22;9420;50.876;7.012;2023-07-20T08:42:08;20.16;61.83
18581;DHT22;9420;50.876;7.012;2023-07-20T08:44:39;20.08;62.42
18581;DHT22;9420;50.876;7.012;2023-07-20T08:47:08;20.63;60.32
18581;DHT22;9420;50.876;7.012;2023-07-20T08:49:35;21.48;59.27
18581;DHT22;9420;50.876;7.012;2023-07-20T08:52:03;22.01;58.20
18581;DHT22;9420;50.876;7.012;2023-07-20T08:54:31;22.06;56.91
18581;DHT22;9420;50.876;7.012;2023-07-20T08:57:02;21.94;55.80
18581;DHT22;9420;50.876;7.012;2023-07-20T08:59:39;21.46;56.24
18581;DHT22;9420;50.876;7.012;2023-07-20T09:02:06;21.80;55.37
18581;DHT22;9420;50.876;7.012;2023-07-20T09:04:33;22.14;54.57
18581;DHT22;9420;50.876;7.012;2023-07-20T09:07:02;21.98;55.83
18581;DHT22;9420;50.876;7.012;2023-07-20T09:09:28;21.87;55.42
18581;DHT22;9420;50.876;7.012;2023-07-20T09:11:56;21.20;56.40
18581;DHT22;9420;50.876;7.012;2023-07-20T09:14:23;21.12;56.39
18581;DHT22;9420;50.876;7.012;2023-07-20T09:16:52;21.60;56.70
18581;DHT22;9420;50.876;7.012;2023-07-20T09:19:19;21.85;54.92
18581;DHT22;9420;50.876;7.012;2023-07-20T09:21:46;22.08;54.94
18581;DHT22;9420;50.876;7.012;2023-07-20T09:24:13;22.43;54.76
18581;DHT22;9420;50.876;7.012;2023-07-20T09:26:41;22.07;56.03
18581;DHT22;9420;50.876;7.012;2023-07-20T09:29:09;21.92;56.39
18581;DHT22;9420;50.876;7.012;2023-07-20T09:31:37;21.67;56.70
18581;DHT22;9420;50.876;7.012;2023-07-20T09:34:04;21.67;53.42
18581;DHT22;9420;50.876;7.012;2023-07-20T09:36:33;22.76;50.90
18581;DHT22;9420;50.876;7.012;2023-07-20T09:39:00;22.51;52.79
18581;DHT22;9420;50.876;7.012;2023-07-20T09:41:27;22.68;52.95
18581;DHT22;9420;50.876;7.012;2023-07-20T09:44:04;22.99;51.70
18581;DHT22;9420;50.876;7.012;2023-07-20T09:47:25;23.41;51.73
18581;DHT22;9420;50.876;7.012;2023-07-20T09:50:14;23.81;51.71
18581;DHT22;9420;50.876;7.012;2023-07-20T09:52:44;24.04;49.54
18581;DHT22;9420;50.876;7.012;2023-07-20T09:55:12;24.60;48.14
18581;DHT22;9420;50.876;7.012;2023-07-20T09:57:39;25.08;46.39
18581;DHT22;9420;50.876;7.012;2023-07-20T10:00:07;24.61;46.56
18581;DHT22;9420;50.876;7.012;2023-07-20T10:02:46;23.10;52.20
18581;DHT22;9420;50.876;7.012;2023-07-20T10:05:16;23.00;52.36
18581;DHT22;9420;50.876;7.012;2023-07-20T10:07:45;23.16;52.25
18581;DHT22;9420;50.876;7.012;2023-07-20T10:10:14;22.62;53.83
18581;DHT22;9420;50.876;7.012;2023-07-20T10:12:42;23.94;50.69
18581;DHT22;9420;50.876;7.012;2023-07-20T10:15:11;22.95;52.80
18581;DHT22;9420;50.876;7.012;2023-07-20T10:17:49;23.31;52.70
18581;DHT22;9420;50.876;7.012;2023-07-20T10:20:19;24.37;49.34
18581;DHT22;9420;50.876;7.012;2023-07-20T10:22:48;24.66;48.00
18581;DHT22;9420;50.876;7.012;2023-07-20T10:25:15;23.57;50.32
18581;DHT22;9420;50.876;7.012;2023-07-20T10:27:43;23.34;49.97
18581;DHT22;9420;50.876;7.012;2023-07-20T10:30:10;23.53;50.03
18581;DHT22;9420;50.876;7.012;2023-07-20T10:32:37;23.36;50.66
18581;DHT22;9420;50.876;7.012;2023-07-20T10:35:13;22.88;51.79
18581;DHT22;9420;50.876;7.012;2023-07-20T10:37:47;23.58;49.92
18581;DHT22;9420;50.876;7.012;2023-07-20T10:40:28;23.34;49.44
18581;DHT22;9420;50.876;7.012;2023-07-20T10:42:57;24.12;47.10
18581;DHT22;9420;50.876;7.012;2023-07-20T10:45:33;24.68;46.91
18581;DHT22;9420;50.876;7.012;2023-07-20T10:48:03;24.33;47.21
18581;DHT22;9420;50.876;7.012;2023-07-20T10:50:32;23.95;47.36
18581;DHT22;9420;50.876;7.012;2023-07-20T10:53:10;23.60;47.43
18581;DHT22;9420;50.876;7.012;2023-07-20T10:55:37;23.51;47.91
18581;DHT22;9420;50.876;7.012;2023-07-20T10:58:07;23.07;48.95
18581;DHT22;9420;50.876;7.012;2023-07-20T11:00:55;23.55;48.19
18581;DHT22;9420;50.876;7.012;2023-07-20T11:03:29;23.55;48.18
18581;DHT22;9420;50.876;7.012;2023-07-20T11:05:58;23.60;48.41
18581;DHT22;9420;50.876;7.012;2023-07-20T11:08:41;23.98;46.46
18581;DHT22;9420;50.876;7.012;2023-07-20T11:11:21;24.55;45.81
18581;DHT22;9420;50.876;7.012;2023-07-20T11:13:56;25.04;43.56
18581;DHT22;9420;50.876;7.012;2023-07-20T11:16:34;23.84;47.27
18581;DHT22;9420;50.876;7.012;2023-07-20T11:19:00;23.55;48.23
18581;DHT22;9420;50.876;7.012;2023-07-20T11:21:29;23.12;48.80
18581;DHT22;9420;50.876;7.012;2023-07-20T11:23:56;22.98;49.35
18581;DHT22;9420;50.876;7.012;2023-07-20T11:26:23;23.50;47.58
18581;DHT22;9420;50.876;7.012;2023-07-20T11:28:50;22.69;49.78
18581;DHT22;9420;50.876;7.012;2023-07-20T11:31:17;22.10;50.31
18581;DHT22;9420;50.876;7.012;2023-07-20T11:33:43;21.94;50.59
18581;DHT22;9420;50.876;7.012;2023-07-20T11:36:10;22.11;50.94
18581;DHT22;9420;50.876;7.012;2023-07-20T11:38:40;22.27;49.62
18581;DHT22;9420;50.876;7.012;2023-07-20T11:41:07;22.28;50.09
18581;DHT22;9420;50.876;7.012;2023-07-20T11:43:33;22.98;50.02
18581;DHT22;9420;50.876;7.012;2023-07-20T11:46:04;23.28;48.28
18581;DHT22;9420;50.876;7.012;2023-07-20T11:48:31;23.20;48.31
18581;DHT22;9420;50.876;7.012;2023-07-20T11:50:58;23.47;47.56
18581;DHT22;9420;50.876;7.012;2023-07-20T11:53:25;23.88;48.10
18581;DHT22;9420;50.876;7.012;2023-07-20T11:55:53;23.89;46.67
18581;DHT22;9420;50.876;7.012;2023-07-20T11:58:20;23.81;44.93
18581;DHT22;9420;50.876;7.012;2023-07-20T12:00:47;23.47;46.33
18581;DHT22;9420;50.876;7.012;2023-07-20T12:03:14;23.54;45.64
18581;DHT22;9420;50.876;7.012;2023-07-20T12:05:41;23.72;46.23
18581;DHT22;9420;50.876;7.012;2023-07-20T12:08:07;24.22;44.88
18581;DHT22;9420;50.876;7.012;2023-07-20T12:10:42;24.25;45.19
18581;DHT22;9420;50.876;7.012;2023-07-20T12:13:11;24.52;44.99
18581;DHT22;9420;50.876;7.012;2023-07-20T12:15:37;25.35;43.97
18581;DHT22;9420;50.876;7.012;2023-07-20T12:18:04;26.20;42.39
18581;DHT22;9420;50.876;7.012;2023-07-20T12:20:32;27.89;38.44
18581;DHT22;9420;50.876;7.012;2023-07-20T12:23:00;27.81;39.12
18581;DHT22;9420;50.876;7.012;2023-07-20T12:25:37;29.60;36.42
18581;DHT22;9420;50.876;7.012;2023-07-20T12:28:05;30.76;36.93
18581;DHT22;9420;50.876;7.012;2023-07-20T12:30:33;29.36;36.52
18581;DHT22;9420;50.876;7.012;2023-07-20T12:32:59;28.31;38.12
18581;DHT22;9420;50.876;7.012;2023-07-20T12:35:26;27.98;37.99
18581;DHT22;9420;50.876;7.012;2023-07-20T12:37:53;27.88;37.72
18581;DHT22;9420;50.876;7.012;2023-07-20T12:40:20;26.52;40.72
18581;DHT22;9420;50.876;7.012;2023-07-20T12:42:50;25.90;41.94
18581;DHT22;9420;50.876;7.012;2023-07-20T12:45:45;25.24;43.33
18581;DHT22;9420;50.876;7.012;2023-07-20T12:50:54;24.20;44.94
18581;DHT22;9420;50.876;7.012;2023-07-20T12:53:20;24.60;44.04
18581;DHT22;9420;50.876;7.012;2023-07-20T12:55:47;24.15;45.86
18581;DHT22;9420;50.876;7.012;2023-07-20T12:58:14;24.19;45.89
18581;DHT22;9420;50.876;7.012;2023-07-20T13:00:40;24.71;44.49
18581;DHT22;9420;50.876;7.012;2023-07-20T13:03:08;25.14;44.10
18581;DHT22;9420;50.876;7.012;2023-07-20T13:05:35;25.07;44.04
18581;DHT22;9420;50.876;7.012;2023-07-20T13:08:02;26.52;41.78
18581;DHT22;9420;50.876;7.012;2023-07-20T13:10:30;28.56;37.42
18581;DHT22;9420;50.876;7.012;2023-07-20T13:12:57;27.72;40.22
18581;DHT22;9420;50.876;7.012;2023-07-20T13:15:24;25.93;41.81
18581;DHT22;9420;50.876;7.012;2023-07-20T13:17:55;24.74;43.94
18581;DHT22;9420;50.876;7.012;2023-07-20T13:20:23;24.35;45.34
18581;DHT22;9420;50.876;7.012;2023-07-20T13:22:49;24.16;45.71
18581;DHT22;9420;50.876;7.012;2023-07-20T13:25:16;24.01;46.13
18581;DHT22;9420;50.876;7.012;2023-07-20T13:27:45;24.50;45.95
18581;DHT22;9420;50.876;7.012;2023-07-20T13:30:13;24.57;44.81
18581;DHT22;9420;50.876;7.012;2023-07-20T13:32:42;24.80;43.62
18581;DHT22;9420;50.876;7.012;2023-07-20T13:35:08;24.70;43.79
18581;DHT22;9420;50.876;7.012;2023-07-20T13:37:36;24.78;44.26
18581;DHT22;9420;50.876;7.012;2023-07-20T13:40:04;24.29;44.99
18581;DHT22;9420;50.876;7.012;2023-07-20T13:42:31;24.50;43.76
18581;DHT22;9420;50.876;7.012;2023-07-20T13:44:58;24.77;43.85
18581;DHT22;9420;50.876;7.012;2023-07-20T13:47:24;24.68;43.31
18581;DHT22;9420;50.876;7.012;2023-07-20T13:49:51;26.61;40.13
18581;DHT22;9420;50.876;7.012;2023-07-20T13:52:18;27.33;38.77
18581;DHT22;9420;50.876;7.012;2023-07-20T13:54:56;27.58;37.50
18581;DHT22;9420;50.876;7.012;2023-07-20T13:57:22;29.45;36.15
18581;DHT22;9420;50.876;7.012;2023-07-20T13:59:49;29.87;34.30
18581;DHT22;9420;50.876;7.012;2023-07-20T14:02:16;31.02;33.59
18581;DHT22;9420;50.876;7.012;2023-07-20T14:04:42;30.51;33.70
18581;DHT22;9420;50.876;7.012;2023-07-20T14:07:09;30.72;34.49
18581;DHT22;9420;50.876;7.012;2023-07-20T14:09:36;32.28;32.15
18581;DHT22;9420;50.876;7.012;2023-07-20T14:12:05;33.32;30.49
18581;DHT22;9420;50.876;7.012;2023-07-20T14:14:33;33.82;30.13
18581;DHT22;9420;50.876;7.012;2023-07-20T14:17:00;34.06;29.87
18581;DHT22;9420;50.876;7.012;2023-07-20T14:19:26;34.16;29.35
18581;DHT22;9420;50.876;7.012;2023-07-20T14:21:53;33.92;26.81
18581;DHT22;9420;50.876;7.012;2023-07-20T14:24:20;34.00;28.63
18581;DHT22;9420;50.876;7.012;2023-07-20T14:26:46;30.61;33.17
18581;DHT22;9420;50.876;7.012;2023-07-20T14:29:15;32.22;29.54
18581;DHT22;9420;50.876;7.012;2023-07-20T14:31:43;32.01;29.31
18581;DHT22;9420;50.876;7.012;2023-07-20T14:34:09;32.77;29.71
18581;DHT22;9420;50.876;7.012;2023-07-20T14:36:36;32.78;28.52
18581;DHT22;9420;50.876;7.012;2023-07-20T14:39:03;32.70;28.63
18581;DHT22;9420;50.876;7.012;2023-07-20T14:41:30;32.41;29.05
18581;DHT22;9420;50.876;7.012;2023-07-20T14:43:57;32.55;28.70
18581;DHT22;9420;50.876;7.012;2023-07-20T14:46:24;33.38;27.94
18581;DHT22;9420;50.876;7.012;2023-07-20T14:48:51;32.20;28.05
18581;DHT22;9420;50.876;7.012;2023-07-20T14:51:18;32.39;29.54
18581;DHT22;9420;50.876;7.012;2023-07-20T14:53:44;32.63;29.70
18581;DHT22;9420;50.876;7.012;2023-07-20T14:56:11;31.74;29.84
18581;DHT22;9420;50.876;7.012;2023-07-20T14:58:38;31.57;28.69
18581;DHT22;9420;50.876;7.012;2023-07-20T15:01:04;32.23;28.08
18581;DHT22;9420;50.876;7.012;2023-07-20T15:03:32;30.92;29.55
18581;DHT22;9420;50.876;7.012;2023-07-20T15:05:59;32.88;28.19
18581;DHT22;9420;50.876;7.012;2023-07-20T15:08:25;31.04;28.00
18581;DHT22;9420;50.876;7.012;2023-07-20T15:10:52;31.98;27.63
18581;DHT22;9420;50.876;7.012;2023-07-20T15:13:18;32.77;26.39
18581;DHT22;9420;50.876;7.012;2023-07-20T15:15:45;32.13;27.34
18581;DHT22;9420;50.876;7.012;2023-07-20T15:18:11;31.70;26.47
18581;DHT22;9420;50.876;7.012;2023-07-20T15:20:39;32.23;27.17
18581;DHT22;9420;50.876;7.012;2023-07-20T15:23:06;33.17;25.98
18581;DHT22;9420;50.876;7.012;2023-07-20T15:25:32;32.64;27.59
18581;DHT22;9420;50.876;7.012;2023-07-20T15:27:59;30.00;29.83
18581;DHT22;9420;50.876;7.012;2023-07-20T15:30:27;28.46;32.46
18581;DHT22;9420;50.876;7.012;2023-07-20T15:32:54;28.15;33.73
18581;DHT22;9420;50.876;7.012;2023-07-20T15:35:22;28.52;32.96
18581;DHT22;9420;50.876;7.012;2023-07-20T15:37:49;31.10;29.60
18581;DHT22;9420;50.876;7.012;2023-07-20T15:40:16;32.88;27.23
18581;DHT22;9420;50.876;7.012;2023-07-20T15:42:43;33.62;28.96
18581;DHT22;9420;50.876;7.012;2023-07-20T15:45:10;31.86;28.91
18581;DHT22;9420;50.876;7.012;2023-07-20T15:47:36;31.67;29.41
18581;DHT22;9420;50.876;7.012;2023-07-20T15:50:03;30.68;28.44
18581;DHT22;9420;50.876;7.012;2023-07-20T15:52:30;31.31;28.35
18581;DHT22;9420;50.876;7.012;2023-07-20T15:54:58;30.95;30.48
18581;DHT22;9420;50.876;7.012;2023-07-20T15:57:25;30.97;29.50